Casa Branca, Brazil
Current Conditions -  °F | °C
As of 8:00 PM on Wednesday 28 Jan 2015 (Local Time) from SBRP Reporting Station
Few Clouds Few Clouds  
Wind Chill: 84°   Ceiling: Unl
Heat Index: 86°   Visibility: 6mi
Dew Point: 66°   Wind: 7mph
Humidity: 55%   Direction: 90°E
Pressure: 29.91"   Gusts: NA
Location:  21.78°S, 47.08°W
Report Text: SBRP 282200Z 09006KT 9999 FEW030 29/19 Q1013
Loading
Personal Weather Stations






























Interactive Weather Map New forecast layout! Learn more

10-Day Weather Forecast

Advertisements
Track Severe Weather on mobile